sensor_id;sensor_type;location;lat;lon;timestamp;temperature;humidity
16785;DHT22;8509;52.178;5.404;2024-02-28T00:01:59;3.60;99.90
16785;DHT22;8509;52.178;5.404;2024-02-28T00:04:28;3.60;99.90
16785;DHT22;8509;52.178;5.404;2024-02-28T00:06:53;3.70;99.90
16785;DHT22;8509;52.178;5.404;2024-02-28T00:09:19;3.80;99.90
16785;DHT22;8509;52.178;5.404;2024-02-28T00:11:46;3.60;99.90
16785;DHT22;8509;52.178;5.404;2024-02-28T00:14:13;3.60;99.90
16785;DHT22;8509;52.178;5.404;2024-02-28T00:16:42;3.60;99.90
16785;DHT22;8509;52.178;5.404;2024-02-28T00:19:08;3.50;99.90
16785;DHT22;8509;52.178;5.404;2024-02-28T00:21:34;3.30;99.90
16785;DHT22;8509;52.178;5.404;2024-02-28T00:24:00;3.20;99.90
16785;DHT22;8509;52.178;5.404;2024-02-28T00:26:25;3.20;99.90
16785;DHT22;8509;52.178;5.404;2024-02-28T00:28:51;3.10;99.90
16785;DHT22;8509;52.178;5.404;2024-02-28T00:31:17;3.20;99.90
16785;DHT22;8509;52.178;5.404;2024-02-28T00:33:42;3.10;99.90
16785;DHT22;8509;52.178;5.404;2024-02-28T00:36:08;2.90;99.90
16785;DHT22;8509;52.178;5.404;2024-02-28T00:38:34;2.90;99.90
16785;DHT22;8509;52.178;5.404;2024-02-28T00:40:59;2.80;99.90
16785;DHT22;8509;52.178;5.404;2024-02-28T00:43:25;2.80;99.90
16785;DHT22;8509;52.178;5.404;2024-02-28T00:45:51;2.70;99.90
16785;DHT22;8509;52.178;5.404;2024-02-28T00:48:16;2.60;99.90
16785;DHT22;8509;52.178;5.404;2024-02-28T00:50:42;2.60;99.90
16785;DHT22;8509;52.178;5.404;2024-02-28T00:53:07;2.60;99.90
16785;DHT22;8509;52.178;5.404;2024-02-28T00:55:33;2.60;99.90
16785;DHT22;8509;52.178;5.404;2024-02-28T00:57:59;2.60;99.90
16785;DHT22;8509;52.178;5.404;2024-02-28T01:00:25;2.50;99.90
16785;DHT22;8509;52.178;5.404;2024-02-28T01:02:53;2.50;99.90
16785;DHT22;8509;52.178;5.404;2024-02-28T01:05:19;2.50;99.90
16785;DHT22;8509;52.178;5.404;2024-02-28T01:07:44;2.50;99.90
16785;DHT22;8509;52.178;5.404;2024-02-28T01:10:10;2.50;99.90
16785;DHT22;8509;52.178;5.404;2024-02-28T01:12:37;2.40;99.90
16785;DHT22;8509;52.178;5.404;2024-02-28T01:15:03;2.40;99.90
16785;DHT22;8509;52.178;5.404;2024-02-28T01:17:29;2.40;99.90
16785;DHT22;8509;52.178;5.404;2024-02-28T01:19:54;2.30;99.90
16785;DHT22;8509;52.178;5.404;2024-02-28T01:22:20;2.30;99.90
16785;DHT22;8509;52.178;5.404;2024-02-28T01:24:46;2.30;99.90
16785;DHT22;8509;52.178;5.404;2024-02-28T01:27:11;2.30;99.90
16785;DHT22;8509;52.178;5.404;2024-02-28T01:29:37;2.40;99.90
16785;DHT22;8509;52.178;5.404;2024-02-28T01:32:02;2.20;99.90
16785;DHT22;8509;52.178;5.404;2024-02-28T01:34:28;2.20;99.90
16785;DHT22;8509;52.178;5.404;2024-02-28T01:36:54;2.30;99.90
16785;DHT22;8509;52.178;5.404;2024-02-28T01:39:19;2.40;99.90
16785;DHT22;8509;52.178;5.404;2024-02-28T01:41:53;2.20;99.90
16785;DHT22;8509;52.178;5.404;2024-02-28T01:44:19;2.20;99.90
16785;DHT22;8509;52.178;5.404;2024-02-28T01:46:45;2.20;99.90
16785;DHT22;8509;52.178;5.404;2024-02-28T01:49:11;2.20;99.90
16785;DHT22;8509;52.178;5.404;2024-02-28T01:51:37;2.10;99.90
16785;DHT22;8509;52.178;5.404;2024-02-28T01:54:02;2.10;99.90
16785;DHT22;8509;52.178;5.404;2024-02-28T01:56:28;2.10;99.90
16785;DHT22;8509;52.178;5.404;2024-02-28T01:58:55;2.10;99.90
16785;DHT22;8509;52.178;5.404;2024-02-28T02:01:22;2.10;99.90
16785;DHT22;8509;52.178;5.404;2024-02-28T02:03:47;2.10;99.90
16785;DHT22;8509;52.178;5.404;2024-02-28T02:06:14;2.00;99.90
16785;DHT22;8509;52.178;5.404;2024-02-28T02:08:40;2.00;99.90
16785;DHT22;8509;52.178;5.404;2024-02-28T02:11:06;2.20;99.90
16785;DHT22;8509;52.178;5.404;2024-02-28T02:13:32;2.10;99.90
16785;DHT22;8509;52.178;5.404;2024-02-28T02:15:57;2.20;99.90
16785;DHT22;8509;52.178;5.404;2024-02-28T02:18:23;2.30;99.90
16785;DHT22;8509;52.178;5.404;2024-02-28T02:20:59;2.40;99.90
16785;DHT22;8509;52.178;5.404;2024-02-28T02:23:26;2.40;99.90
16785;DHT22;8509;52.178;5.404;2024-02-28T02:25:52;2.40;99.90
16785;DHT22;8509;52.178;5.404;2024-02-28T02:28:18;2.70;99.90
16785;DHT22;8509;52.178;5.404;2024-02-28T02:30:44;2.50;99.90
16785;DHT22;8509;52.178;5.404;2024-02-28T02:33:12;2.60;99.90
16785;DHT22;8509;52.178;5.404;2024-02-28T02:35:37;2.60;99.90
16785;DHT22;8509;52.178;5.404;2024-02-28T02:38:03;2.60;99.90
16785;DHT22;8509;52.178;5.404;2024-02-28T02:40:29;2.70;99.90
16785;DHT22;8509;52.178;5.404;2024-02-28T02:42:54;2.80;99.90
16785;DHT22;8509;52.178;5.404;2024-02-28T02:45:20;2.80;99.90
16785;DHT22;8509;52.178;5.404;2024-02-28T02:47:46;2.90;99.90
16785;DHT22;8509;52.178;5.404;2024-02-28T02:50:12;2.80;99.90
16785;DHT22;8509;52.178;5.404;2024-02-28T02:52:38;2.80;99.90
16785;DHT22;8509;52.178;5.404;2024-02-28T02:55:09;2.80;99.90
16785;DHT22;8509;52.178;5.404;2024-02-28T02:57:35;2.80;99.90
16785;DHT22;8509;52.178;5.404;2024-02-28T03:00:01;2.80;99.90
16785;DHT22;8509;52.178;5.404;2024-02-28T03:02:27;2.80;99.90
16785;DHT22;8509;52.178;5.404;2024-02-28T03:04:52;2.90;99.90
16785;DHT22;8509;52.178;5.404;2024-02-28T03:07:19;2.80;99.90
16785;DHT22;8509;52.178;5.404;2024-02-28T03:09:45;2.90;99.90
16785;DHT22;8509;52.178;5.404;2024-02-28T03:12:11;2.80;99.90
16785;DHT22;8509;52.178;5.404;2024-02-28T03:14:36;2.90;99.90
16785;DHT22;8509;52.178;5.404;2024-02-28T03:17:02;2.90;99.90
16785;DHT22;8509;52.178;5.404;2024-02-28T03:19:28;3.00;99.90
16785;DHT22;8509;52.178;5.404;2024-02-28T03:21:53;3.00;99.90
16785;DHT22;8509;52.178;5.404;2024-02-28T03:24:19;3.10;99.90
16785;DHT22;8509;52.178;5.404;2024-02-28T03:26:45;3.10;99.90
16785;DHT22;8509;52.178;5.404;2024-02-28T03:29:11;3.00;99.90
16785;DHT22;8509;52.178;5.404;2024-02-28T03:31:37;3.20;99.90
16785;DHT22;8509;52.178;5.404;2024-02-28T03:34:02;3.20;99.90
16785;DHT22;8509;52.178;5.404;2024-02-28T03:36:29;3.20;99.90
16785;DHT22;8509;52.178;5.404;2024-02-28T03:38:54;3.20;99.90
16785;DHT22;8509;52.178;5.404;2024-02-28T03:41:20;3.30;99.90
16785;DHT22;8509;52.178;5.404;2024-02-28T03:43:46;3.30;99.90
16785;DHT22;8509;52.178;5.404;2024-02-28T03:46:11;3.20;99.90
16785;DHT22;8509;52.178;5.404;2024-02-28T03:48:37;3.30;99.90
16785;DHT22;8509;52.178;5.404;2024-02-28T03:51:03;3.30;99.90
16785;DHT22;8509;52.178;5.404;2024-02-28T03:53:29;3.30;99.90
16785;DHT22;8509;52.178;5.404;2024-02-28T03:55:55;3.40;99.90
16785;DHT22;8509;52.178;5.404;2024-02-28T03:58:21;3.40;99.90
16785;DHT22;8509;52.178;5.404;2024-02-28T04:00:47;3.40;99.90
16785;DHT22;8509;52.178;5.404;2024-02-28T04:03:12;3.40;99.90
16785;DHT22;8509;52.178;5.404;2024-02-28T04:05:40;3.50;99.90
16785;DHT22;8509;52.178;5.404;2024-02-28T04:08:05;3.40;99.90
16785;DHT22;8509;52.178;5.404;2024-02-28T04:10:31;3.50;99.90
16785;DHT22;8509;52.178;5.404;2024-02-28T04:12:57;3.70;99.90
16785;DHT22;8509;52.178;5.404;2024-02-28T04:15:22;3.60;99.90
16785;DHT22;8509;52.178;5.404;2024-02-28T04:17:51;3.60;99.90
16785;DHT22;8509;52.178;5.404;2024-02-28T04:20:17;3.70;99.90
16785;DHT22;8509;52.178;5.404;2024-02-28T04:22:42;3.70;99.90
16785;DHT22;8509;52.178;5.404;2024-02-28T04:25:09;3.60;99.90
16785;DHT22;8509;52.178;5.404;2024-02-28T04:27:38;3.60;99.90
16785;DHT22;8509;52.178;5.404;2024-02-28T04:30:05;3.70;99.90
16785;DHT22;8509;52.178;5.404;2024-02-28T04:32:30;3.70;99.90
16785;DHT22;8509;52.178;5.404;2024-02-28T04:34:56;3.70;99.90
16785;DHT22;8509;52.178;5.404;2024-02-28T04:37:22;3.80;99.90
16785;DHT22;8509;52.178;5.404;2024-02-28T04:39:48;3.70;99.90
16785;DHT22;8509;52.178;5.404;2024-02-28T04:42:15;3.80;99.90
16785;DHT22;8509;52.178;5.404;2024-02-28T04:44:41;3.80;99.90
16785;DHT22;8509;52.178;5.404;2024-02-28T04:47:07;3.90;99.90
16785;DHT22;8509;52.178;5.404;2024-02-28T04:49:36;3.80;99.90
16785;DHT22;8509;52.178;5.404;2024-02-28T04:52:01;3.80;99.90
16785;DHT22;8509;52.178;5.404;2024-02-28T04:54:27;3.90;99.90
16785;DHT22;8509;52.178;5.404;2024-02-28T04:56:53;4.00;99.90
16785;DHT22;8509;52.178;5.404;2024-02-28T04:59:18;4.00;99.90
16785;DHT22;8509;52.178;5.404;2024-02-28T05:01:44;4.10;99.90
16785;DHT22;8509;52.178;5.404;2024-02-28T05:04:12;4.00;99.90
16785;DHT22;8509;52.178;5.404;2024-02-28T05:06:38;4.10;99.90
16785;DHT22;8509;52.178;5.404;2024-02-28T05:09:03;4.10;99.90
16785;DHT22;8509;52.178;5.404;2024-02-28T05:11:29;4.20;99.90
16785;DHT22;8509;52.178;5.404;2024-02-28T05:13:55;4.40;99.90
16785;DHT22;8509;52.178;5.404;2024-02-28T05:16:21;4.20;99.90
16785;DHT22;8509;52.178;5.404;2024-02-28T05:18:47;4.30;99.90
16785;DHT22;8509;52.178;5.404;2024-02-28T05:21:13;4.40;99.90
16785;DHT22;8509;52.178;5.404;2024-02-28T05:23:40;4.40;99.90
16785;DHT22;8509;52.178;5.404;2024-02-28T05:26:05;4.40;99.90
16785;DHT22;8509;52.178;5.404;2024-02-28T05:28:33;4.40;99.90
16785;DHT22;8509;52.178;5.404;2024-02-28T05:31:42;4.50;99.90
16785;DHT22;8509;52.178;5.404;2024-02-28T05:33:51;4.50;99.90
16785;DHT22;8509;52.178;5.404;2024-02-28T05:36:17;4.40;99.90
16785;DHT22;8509;52.178;5.404;2024-02-28T05:38:43;4.50;99.90
16785;DHT22;8509;52.178;5.404;2024-02-28T05:41:09;4.50;99.90
16785;DHT22;8509;52.178;5.404;2024-02-28T05:43:36;4.60;99.90
16785;DHT22;8509;52.178;5.404;2024-02-28T05:46:02;4.50;99.90
16785;DHT22;8509;52.178;5.404;2024-02-28T05:48:29;4.50;99.90
16785;DHT22;8509;52.178;5.404;2024-02-28T05:50:55;4.60;99.90
16785;DHT22;8509;52.178;5.404;2024-02-28T05:53:20;4.50;99.90
16785;DHT22;8509;52.178;5.404;2024-02-28T05:55:49;4.60;99.90
16785;DHT22;8509;52.178;5.404;2024-02-28T05:58:14;4.60;99.90
16785;DHT22;8509;52.178;5.404;2024-02-28T06:00:41;4.60;99.90
16785;DHT22;8509;52.178;5.404;2024-02-28T06:03:06;4.50;99.90
16785;DHT22;8509;52.178;5.404;2024-02-28T06:05:32;4.50;99.90
16785;DHT22;8509;52.178;5.404;2024-02-28T06:07:58;4.60;99.90
16785;DHT22;8509;52.178;5.404;2024-02-28T06:10:23;4.60;99.90
16785;DHT22;8509;52.178;5.404;2024-02-28T06:12:49;4.60;99.90
16785;DHT22;8509;52.178;5.404;2024-02-28T06:15:15;4.60;99.90
16785;DHT22;8509;52.178;5.404;2024-02-28T06:17:41;4.60;99.90
16785;DHT22;8509;52.178;5.404;2024-02-28T06:20:07;4.60;99.90
16785;DHT22;8509;52.178;5.404;2024-02-28T06:22:33;4.60;99.90
16785;DHT22;8509;52.178;5.404;2024-02-28T06:24:58;4.60;99.90
16785;DHT22;8509;52.178;5.404;2024-02-28T06:27:24;4.70;99.90
16785;DHT22;8509;52.178;5.404;2024-02-28T06:29:52;4.70;99.90
16785;DHT22;8509;52.178;5.404;2024-02-28T06:32:17;4.70;99.90
16785;DHT22;8509;52.178;5.404;2024-02-28T06:34:43;4.70;99.90
16785;DHT22;8509;52.178;5.404;2024-02-28T06:37:09;4.70;99.90
16785;DHT22;8509;52.178;5.404;2024-02-28T06:39:34;4.70;99.90
16785;DHT22;8509;52.178;5.404;2024-02-28T06:42:00;4.60;99.90
16785;DHT22;8509;52.178;5.404;2024-02-28T06:44:26;4.80;99.90
16785;DHT22;8509;52.178;5.404;2024-02-28T06:46:51;4.80;99.90
16785;DHT22;8509;52.178;5.404;2024-02-28T06:49:17;4.80;99.90
16785;DHT22;8509;52.178;5.404;2024-02-28T06:51:44;4.90;99.90
16785;DHT22;8509;52.178;5.404;2024-02-28T06:54:10;4.90;99.90
16785;DHT22;8509;52.178;5.404;2024-02-28T06:56:36;4.90;99.90
16785;DHT22;8509;52.178;5.404;2024-02-28T06:59:02;4.90;99.90
16785;DHT22;8509;52.178;5.404;2024-02-28T07:01:29;4.90;99.90
16785;DHT22;8509;52.178;5.404;2024-02-28T07:03:54;4.90;99.90
16785;DHT22;8509;52.178;5.404;2024-02-28T07:06:20;5.00;99.90
16785;DHT22;8509;52.178;5.404;2024-02-28T07:08:46;4.90;99.90
16785;DHT22;8509;52.178;5.404;2024-02-28T07:11:15;5.10;99.90
16785;DHT22;8509;52.178;5.404;2024-02-28T07:13:41;5.10;99.90
16785;DHT22;8509;52.178;5.404;2024-02-28T07:16:07;5.20;99.90
16785;DHT22;8509;52.178;5.404;2024-02-28T07:18:36;5.10;99.90
16785;DHT22;8509;52.178;5.404;2024-02-28T07:21:01;5.10;99.90
16785;DHT22;8509;52.178;5.404;2024-02-28T07:23:27;5.10;99.90
16785;DHT22;8509;52.178;5.404;2024-02-28T07:25:53;5.10;99.90
16785;DHT22;8509;52.178;5.404;2024-02-28T07:28:18;5.20;99.90
16785;DHT22;8509;52.178;5.404;2024-02-28T07:30:44;5.20;99.90
16785;DHT22;8509;52.178;5.404;2024-02-28T07:33:11;5.20;99.90
16785;DHT22;8509;52.178;5.404;2024-02-28T07:35:55;5.20;99.90
16785;DHT22;8509;52.178;5.404;2024-02-28T07:38:22;5.20;99.90
16785;DHT22;8509;52.178;5.404;2024-02-28T07:40:53;5.30;99.90
16785;DHT22;8509;52.178;5.404;2024-02-28T07:43:18;5.30;99.90
16785;DHT22;8509;52.178;5.404;2024-02-28T07:45:44;5.30;99.90
16785;DHT22;8509;52.178;5.404;2024-02-28T07:48:10;5.50;99.90
16785;DHT22;8509;52.178;5.404;2024-02-28T07:50:36;5.60;99.90
16785;DHT22;8509;52.178;5.404;2024-02-28T07:53:03;5.50;99.90
16785;DHT22;8509;52.178;5.404;2024-02-28T07:55:29;5.50;99.90
16785;DHT22;8509;52.178;5.404;2024-02-28T07:57:55;5.60;99.90
16785;DHT22;8509;52.178;5.404;2024-02-28T08:00:20;5.60;99.90
16785;DHT22;8509;52.178;5.404;2024-02-28T08:02:46;5.70;99.90
16785;DHT22;8509;52.178;5.404;2024-02-28T08:05:13;5.70;99.90
16785;DHT22;8509;52.178;5.404;2024-02-28T08:07:39;5.70;99.90
16785;DHT22;8509;52.178;5.404;2024-02-28T08:10:05;5.80;99.90
16785;DHT22;8509;52.178;5.404;2024-02-28T08:12:34;5.90;99.90
16785;DHT22;8509;52.178;5.404;2024-02-28T08:14:59;5.90;99.90
16785;DHT22;8509;52.178;5.404;2024-02-28T08:17:25;5.90;99.90
16785;DHT22;8509;52.178;5.404;2024-02-28T08:19:51;5.90;99.90
16785;DHT22;8509;52.178;5.404;2024-02-28T08:22:16;5.90;99.90
16785;DHT22;8509;52.178;5.404;2024-02-28T08:24:42;5.90;99.90
16785;DHT22;8509;52.178;5.404;2024-02-28T08:27:08;5.80;99.90
16785;DHT22;8509;52.178;5.404;2024-02-28T08:29:33;6.00;99.90
16785;DHT22;8509;52.178;5.404;2024-02-28T08:32:01;6.20;99.90
16785;DHT22;8509;52.178;5.404;2024-02-28T08:34:26;6.20;99.90
16785;DHT22;8509;52.178;5.404;2024-02-28T08:36:52;6.30;99.90
16785;DHT22;8509;52.178;5.404;2024-02-28T08:39:18;6.30;99.90
16785;DHT22;8509;52.178;5.404;2024-02-28T08:41:43;6.40;99.90
16785;DHT22;8509;52.178;5.404;2024-02-28T08:44:10;6.40;99.90
16785;DHT22;8509;52.178;5.404;2024-02-28T08:46:35;6.40;99.90
16785;DHT22;8509;52.178;5.404;2024-02-28T08:49:01;6.50;99.90
16785;DHT22;8509;52.178;5.404;2024-02-28T08:51:28;6.40;99.90
16785;DHT22;8509;52.178;5.404;2024-02-28T08:53:54;6.60;99.90
16785;DHT22;8509;52.178;5.404;2024-02-28T08:56:21;6.40;99.90
16785;DHT22;8509;52.178;5.404;2024-02-28T08:58:46;6.40;99.90
16785;DHT22;8509;52.178;5.404;2024-02-28T09:01:15;6.40;99.90
16785;DHT22;8509;52.178;5.404;2024-02-28T09:03:42;6.50;99.90
16785;DHT22;8509;52.178;5.404;2024-02-28T09:06:08;6.50;99.90
16785;DHT22;8509;52.178;5.404;2024-02-28T09:08:36;6.70;99.90
16785;DHT22;8509;52.178;5.404;2024-02-28T09:11:02;6.80;99.90
16785;DHT22;8509;52.178;5.404;2024-02-28T09:13:28;7.00;99.90
16785;DHT22;8509;52.178;5.404;2024-02-28T09:15:54;7.10;99.90
16785;DHT22;8509;52.178;5.404;2024-02-28T09:18:19;7.30;99.90
16785;DHT22;8509;52.178;5.404;2024-02-28T09:20:45;7.50;99.90
16785;DHT22;8509;52.178;5.404;2024-02-28T09:23:10;7.60;99.90
16785;DHT22;8509;52.178;5.404;2024-02-28T09:25:36;7.80;99.90
16785;DHT22;8509;52.178;5.404;2024-02-28T09:28:02;7.90;99.90
16785;DHT22;8509;52.178;5.404;2024-02-28T09:30:28;8.10;99.90
16785;DHT22;8509;52.178;5.404;2024-02-28T09:32:53;8.20;99.90
16785;DHT22;8509;52.178;5.404;2024-02-28T09:35:20;8.40;99.90
16785;DHT22;8509;52.178;5.404;2024-02-28T09:37:45;8.20;99.90
16785;DHT22;8509;52.178;5.404;2024-02-28T09:40:12;8.40;99.90
16785;DHT22;8509;52.178;5.404;2024-02-28T09:42:38;8.50;99.90
16785;DHT22;8509;52.178;5.404;2024-02-28T09:45:04;8.50;99.90
16785;DHT22;8509;52.178;5.404;2024-02-28T09:47:30;8.70;99.90
16785;DHT22;8509;52.178;5.404;2024-02-28T09:49:58;8.80;99.90
16785;DHT22;8509;52.178;5.404;2024-02-28T09:52:26;8.90;99.90
16785;DHT22;8509;52.178;5.404;2024-02-28T09:54:55;9.00;99.90
16785;DHT22;8509;52.178;5.404;2024-02-28T09:57:22;9.30;99.90
16785;DHT22;8509;52.178;5.404;2024-02-28T09:59:57;9.20;99.90
16785;DHT22;8509;52.178;5.404;2024-02-28T10:02:24;9.30;99.90
16785;DHT22;8509;52.178;5.404;2024-02-28T10:04:52;9.50;99.90
16785;DHT22;8509;52.178;5.404;2024-02-28T10:07:17;9.40;99.90
16785;DHT22;8509;52.178;5.404;2024-02-28T10:09:44;9.60;99.90
16785;DHT22;8509;52.178;5.404;2024-02-28T10:12:10;9.80;99.90
16785;DHT22;8509;52.178;5.404;2024-02-28T10:14:36;9.80;99.90
16785;DHT22;8509;52.178;5.404;2024-02-28T10:17:01;9.90;99.90
16785;DHT22;8509;52.178;5.404;2024-02-28T10:19:29;9.90;99.90
16785;DHT22;8509;52.178;5.404;2024-02-28T10:21:55;9.90;99.90
16785;DHT22;8509;52.178;5.404;2024-02-28T10:24:24;9.90;99.90
16785;DHT22;8509;52.178;5.404;2024-02-28T10:26:49;10.00;99.90
16785;DHT22;8509;52.178;5.404;2024-02-28T10:29:24;10.10;99.90
16785;DHT22;8509;52.178;5.404;2024-02-28T10:31:51;10.30;99.90
16785;DHT22;8509;52.178;5.404;2024-02-28T10:34:18;10.30;99.90
16785;DHT22;8509;52.178;5.404;2024-02-28T10:36:46;10.50;99.90
16785;DHT22;8509;52.178;5.404;2024-02-28T10:39:12;10.50;99.90
16785;DHT22;8509;52.178;5.404;2024-02-28T10:41:39;10.60;99.90
16785;DHT22;8509;52.178;5.404;2024-02-28T10:44:05;10.70;99.90
16785;DHT22;8509;52.178;5.404;2024-02-28T10:46:31;10.80;99.90
16785;DHT22;8509;52.178;5.404;2024-02-28T10:48:57;10.70;99.90
16785;DHT22;8509;52.178;5.404;2024-02-28T10:51:25;10.70;99.90
16785;DHT22;8509;52.178;5.404;2024-02-28T10:54:10;10.80;99.90
16785;DHT22;8509;52.178;5.404;2024-02-28T10:56:37;11.00;99.90
16785;DHT22;8509;52.178;5.404;2024-02-28T10:59:06;11.00;99.90
16785;DHT22;8509;52.178;5.404;2024-02-28T11:01:36;11.00;99.90
16785;DHT22;8509;52.178;5.404;2024-02-28T11:04:04;11.00;99.90
16785;DHT22;8509;52.178;5.404;2024-02-28T11:06:31;10.80;99.90
16785;DHT22;8509;52.178;5.404;2024-02-28T11:09:02;10.80;99.90
16785;DHT22;8509;52.178;5.404;2024-02-28T11:11:32;10.80;99.90
16785;DHT22;8509;52.178;5.404;2024-02-28T11:13:59;10.90;99.90
16785;DHT22;8509;52.178;5.404;2024-02-28T11:16:31;10.80;99.90
16785;DHT22;8509;52.178;5.404;2024-02-28T11:18:57;10.90;99.90
16785;DHT22;8509;52.178;5.404;2024-02-28T11:21:34;10.80;99.90
16785;DHT22;8509;52.178;5.404;2024-02-28T11:24:01;10.80;99.90
16785;DHT22;8509;52.178;5.404;2024-02-28T11:26:27;10.80;99.90
16785;DHT22;8509;52.178;5.404;2024-02-28T11:28:56;11.00;99.90
16785;DHT22;8509;52.178;5.404;2024-02-28T11:31:22;11.10;99.90
16785;DHT22;8509;52.178;5.404;2024-02-28T11:33:48;11.30;99.90
16785;DHT22;8509;52.178;5.404;2024-02-28T11:36:14;11.30;99.90
16785;DHT22;8509;52.178;5.404;2024-02-28T11:38:41;11.20;99.90
16785;DHT22;8509;52.178;5.404;2024-02-28T11:41:08;11.10;99.90
16785;DHT22;8509;52.178;5.404;2024-02-28T11:43:36;11.00;99.90
16785;DHT22;8509;52.178;5.404;2024-02-28T11:46:08;10.90;99.90
16785;DHT22;8509;52.178;5.404;2024-02-28T11:48:37;10.80;99.90
16785;DHT22;8509;52.178;5.404;2024-02-28T11:51:06;10.80;99.90
16785;DHT22;8509;52.178;5.404;2024-02-28T11:53:36;10.70;99.90
16785;DHT22;8509;52.178;5.404;2024-02-28T11:56:05;10.80;99.90
16785;DHT22;8509;52.178;5.404;2024-02-28T11:58:31;10.90;99.90
16785;DHT22;8509;52.178;5.404;2024-02-28T12:00:59;11.00;99.90
16785;DHT22;8509;52.178;5.404;2024-02-28T12:03:26;10.90;99.90
16785;DHT22;8509;52.178;5.404;2024-02-28T12:05:54;10.90;99.90
16785;DHT22;8509;52.178;5.404;2024-02-28T12:08:22;10.90;99.90
16785;DHT22;8509;52.178;5.404;2024-02-28T12:10:48;10.80;99.90
16785;DHT22;8509;52.178;5.404;2024-02-28T12:13:22;11.00;99.90
16785;DHT22;8509;52.178;5.404;2024-02-28T12:15:48;11.10;99.90
16785;DHT22;8509;52.178;5.404;2024-02-28T12:18:16;11.20;99.90
16785;DHT22;8509;52.178;5.404;2024-02-28T12:20:43;11.40;99.90
16785;DHT22;8509;52.178;5.404;2024-02-28T12:23:10;11.60;99.90
16785;DHT22;8509;52.178;5.404;2024-02-28T12:25:36;11.60;99.90
16785;DHT22;8509;52.178;5.404;2024-02-28T12:28:04;11.80;99.90
16785;DHT22;8509;52.178;5.404;2024-02-28T12:30:39;11.70;99.90
16785;DHT22;8509;52.178;5.404;2024-02-28T12:33:06;11.80;99.90
16785;DHT22;8509;52.178;5.404;2024-02-28T12:35:36;11.90;99.90
16785;DHT22;8509;52.178;5.404;2024-02-28T12:38:03;12.00;99.90
16785;DHT22;8509;52.178;5.404;2024-02-28T12:40:31;12.10;99.90
16785;DHT22;8509;52.178;5.404;2024-02-28T12:42:57;12.10;99.90
16785;DHT22;8509;52.178;5.404;2024-02-28T12:45:23;12.30;99.90
16785;DHT22;8509;52.178;5.404;2024-02-28T12:47:50;12.30;99.90
16785;DHT22;8509;52.178;5.404;2024-02-28T12:50:16;12.10;99.90
16785;DHT22;8509;52.178;5.404;2024-02-28T12:52:45;12.00;99.90
16785;DHT22;8509;52.178;5.404;2024-02-28T12:55:13;12.00;99.90
16785;DHT22;8509;52.178;5.404;2024-02-28T12:57:40;12.00;99.90
16785;DHT22;8509;52.178;5.404;2024-02-28T13:00:09;11.90;99.90
16785;DHT22;8509;52.178;5.404;2024-02-28T13:02:36;12.00;99.90
16785;DHT22;8509;52.178;5.404;2024-02-28T13:05:06;12.10;99.90
16785;DHT22;8509;52.178;5.404;2024-02-28T13:07:33;12.00;99.90
16785;DHT22;8509;52.178;5.404;2024-02-28T13:10:01;11.90;99.90
16785;DHT22;8509;52.178;5.404;2024-02-28T13:12:31;11.90;99.90
16785;DHT22;8509;52.178;5.404;2024-02-28T13:14:58;11.80;99.90
16785;DHT22;8509;52.178;5.404;2024-02-28T13:17:24;11.60;99.90
16785;DHT22;8509;52.178;5.404;2024-02-28T13:19:51;11.60;99.90
16785;DHT22;8509;52.178;5.404;2024-02-28T13:22:20;11.80;99.90
16785;DHT22;8509;52.178;5.404;2024-02-28T13:24:45;11.90;99.90
16785;DHT22;8509;52.178;5.404;2024-02-28T13:27:16;12.10;99.90
16785;DHT22;8509;52.178;5.404;2024-02-28T13:29:45;12.00;99.90
16785;DHT22;8509;52.178;5.404;2024-02-28T13:32:15;12.20;99.90
16785;DHT22;8509;52.178;5.404;2024-02-28T13:34:41;12.30;99.90
16785;DHT22;8509;52.178;5.404;2024-02-28T13:37:07;12.30;99.90
16785;DHT22;8509;52.178;5.404;2024-02-28T13:39:32;12.20;99.90
16785;DHT22;8509;52.178;5.404;2024-02-28T13:42:06;12.30;99.90
16785;DHT22;8509;52.178;5.404;2024-02-28T13:44:35;12.40;99.90
16785;DHT22;8509;52.178;5.404;2024-02-28T13:47:02;12.30;99.90
16785;DHT22;8509;52.178;5.404;2024-02-28T13:49:28;12.40;99.90
16785;DHT22;8509;52.178;5.404;2024-02-28T13:52:35;12.40;99.90
16785;DHT22;8509;52.178;5.404;2024-02-28T13:55:01;12.30;99.90
16785;DHT22;8509;52.178;5.404;2024-02-28T13:57:27;11.90;99.90
16785;DHT22;8509;52.178;5.404;2024-02-28T13:59:53;11.90;99.90
16785;DHT22;8509;52.178;5.404;2024-02-28T14:02:21;11.70;99.90
16785;DHT22;8509;52.178;5.404;2024-02-28T14:04:48;11.70;99.90
16785;DHT22;8509;52.178;5.404;2024-02-28T14:07:15;11.70;99.90
16785;DHT22;8509;52.178;5.404;2024-02-28T14:09:43;11.70;99.90
16785;DHT22;8509;52.178;5.404;2024-02-28T14:12:12;11.70;99.90
16785;DHT22;8509;52.178;5.404;2024-02-28T14:14:46;11.50;99.90
16785;DHT22;8509;52.178;5.404;2024-02-28T14:17:12;11.50;99.90
16785;DHT22;8509;52.178;5.404;2024-02-28T14:19:39;11.40;99.90
16785;DHT22;8509;52.178;5.404;2024-02-28T14:22:05;11.40;99.90
16785;DHT22;8509;52.178;5.404;2024-02-28T14:24:31;11.50;99.90
16785;DHT22;8509;52.178;5.404;2024-02-28T14:27:00;11.40;99.90
16785;DHT22;8509;52.178;5.404;2024-02-28T14:29:27;11.40;99.90
16785;DHT22;8509;52.178;5.404;2024-02-28T14:32:07;11.40;99.90
16785;DHT22;8509;52.178;5.404;2024-02-28T14:34:33;11.50;99.90
16785;DHT22;8509;52.178;5.404;2024-02-28T14:37:01;11.50;99.90
16785;DHT22;8509;52.178;5.404;2024-02-28T14:39:27;11.50;99.90
16785;DHT22;8509;52.178;5.404;2024-02-28T14:41:52;11.40;99.90
16785;DHT22;8509;52.178;5.404;2024-02-28T14:44:23;11.40;99.90
16785;DHT22;8509;52.178;5.404;2024-02-28T14:46:49;11.40;99.90
16785;DHT22;8509;52.178;5.404;2024-02-28T14:49:27;11.20;99.90
16785;DHT22;8509;52.178;5.404;2024-02-28T14:52:06;11.10;99.90
16785;DHT22;8509;52.178;5.404;2024-02-28T14:54:32;11.10;99.90
16785;DHT22;8509;52.178;5.404;2024-02-28T14:57:00;11.10;99.90
16785;DHT22;8509;52.178;5.404;2024-02-28T14:59:26;11.10;99.90
16785;DHT22;8509;52.178;5.404;2024-02-28T15:01:52;11.10;99.90
16785;DHT22;8509;52.178;5.404;2024-02-28T15:04:19;11.20;99.90
16785;DHT22;8509;52.178;5.404;2024-02-28T15:06:45;11.10;99.90
16785;DHT22;8509;52.178;5.404;2024-02-28T15:09:13;11.10;99.90
16785;DHT22;8509;52.178;5.404;2024-02-28T15:11:39;11.00;99.90
16785;DHT22;8509;52.178;5.404;2024-02-28T15:14:05;10.90;99.90
16785;DHT22;8509;52.178;5.404;2024-02-28T15:16:31;11.00;99.90
16785;DHT22;8509;52.178;5.404;2024-02-28T15:18:57;10.90;99.90
16785;DHT22;8509;52.178;5.404;2024-02-28T15:21:31;11.00;99.90
16785;DHT22;8509;52.178;5.404;2024-02-28T15:24:09;11.00;99.90
16785;DHT22;8509;52.178;5.404;2024-02-28T15:29:11;11.00;99.90
16785;DHT22;8509;52.178;5.404;2024-02-28T15:31:37;11.00;99.90
16785;DHT22;8509;52.178;5.404;2024-02-28T15:34:04;11.10;99.90
16785;DHT22;8509;52.178;5.404;2024-02-28T15:36:30;11.10;99.90
16785;DHT22;8509;52.178;5.404;2024-02-28T15:38:56;11.00;99.90
16785;DHT22;8509;52.178;5.404;2024-02-28T15:41:22;10.90;99.90
16785;DHT22;8509;52.178;5.404;2024-02-28T15:43:49;10.90;99.90
16785;DHT22;8509;52.178;5.404;2024-02-28T15:46:15;10.80;99.90
16785;DHT22;8509;52.178;5.404;2024-02-28T15:48:42;10.60;99.90
16785;DHT22;8509;52.178;5.404;2024-02-28T15:51:09;10.60;99.90
16785;DHT22;8509;52.178;5.404;2024-02-28T15:53:34;10.60;99.90
16785;DHT22;8509;52.178;5.404;2024-02-28T15:56:01;10.50;99.90
16785;DHT22;8509;52.178;5.404;2024-02-28T15:58:27;10.40;99.90